Time;durP1;ratioP1;P1;durP2;ratioP2;P2;SDS_P1;SDS_P2;PMS_P1;PMS_P2;Temp;Humidity;BMP_temperature;BMP_pressure;BME280_temperature;BME280_humidity;BME280_pressure;Samples;Min_cycle;Max_cycle;Signal;HPM_P1;HPM_P2
2022/07/27 00:01:16;;;;;;;6.23;0.70;;;14.80;99.90;;;;;;6077032;23;20199;-92
2022/07/27 00:03:44;;;;;;;3.90;0.73;;;14.80;99.90;;;;;;6125251;23;20196;-93
2022/07/27 00:06:10;;;;;;;2.23;0.90;;;14.80;99.90;;;;;;6125513;23;20200;-93
2022/07/27 00:08:36;;;;;;;3.80;0.53;;;14.70;99.90;;;;;;6125559;23;20586;-92
2022/07/27 00:11:02;;;;;;;3.50;1.07;;;14.70;99.90;;;;;;6127093;23;20156;-91
2022/07/27 00:13:28;;;;;;;1.03;0.50;;;14.60;99.90;;;;;;6125192;23;20203;-92
2022/07/27 00:15:54;;;;;;;0.60;0.57;;;14.50;99.90;;;;;;6125122;23;20645;-92
2022/07/27 00:18:20;;;;;;;0.53;0.43;;;14.50;99.90;;;;;;6101150;23;20406;-93
2022/07/27 00:20:46;;;;;;;1.83;1.00;;;14.40;99.90;;;;;;6125193;23;20152;-93
2022/07/27 00:23:12;;;;;;;4.43;0.80;;;14.50;99.90;;;;;;6101396;23;20156;-91
2022/07/27 00:25:38;;;;;;;3.70;0.80;;;14.60;99.90;;;;;;6076950;23;20218;-91
2022/07/27 00:28:04;;;;;;;2.87;0.60;;;14.60;99.90;;;;;;6125397;23;20203;-93
2022/07/27 00:30:30;;;;;;;2.30;0.53;;;14.60;99.90;;;;;;6125133;23;20192;-94
2022/07/27 00:32:56;;;;;;;1.27;0.60;;;14.60;99.90;;;;;;6076843;23;20188;-94
2022/07/27 00:35:22;;;;;;;0.57;0.57;;;14.60;99.90;;;;;;6101673;23;20271;-93
2022/07/27 00:37:48;;;;;;;1.73;1.53;;;14.60;99.90;;;;;;6076743;23;20271;-93
2022/07/27 00:40:14;;;;;;;0.40;0.40;;;14.50;99.90;;;;;;6076802;23;20223;-92
2022/07/27 00:42:40;;;;;;;2.27;0.43;;;14.40;99.90;;;;;;6100288;23;20212;-91
2022/07/27 00:45:06;;;;;;;3.40;0.60;;;14.40;99.90;;;;;;6100596;23;20526;-93
2022/07/27 00:47:32;;;;;;;1.73;0.83;;;14.30;99.90;;;;;;6101219;23;20594;-92
2022/07/27 00:49:59;;;;;;;0.97;0.50;;;14.20;99.90;;;;;;6125262;23;20260;-92
2022/07/27 00:52:26;;;;;;;1.70;0.57;;;14.10;99.90;;;;;;6125055;23;20196;-93
2022/07/27 00:54:53;;;;;;;2.80;0.93;;;14.10;99.90;;;;;;6126260;23;20538;-93
2022/07/27 00:57:19;;;;;;;2.67;0.40;;;14.00;99.90;;;;;;6100716;23;20228;-92
2022/07/27 00:59:44;;;;;;;1.40;1.33;;;13.90;99.90;;;;;;6100525;23;20164;-93
2022/07/27 01:02:10;;;;;;;4.80;0.70;;;13.90;99.90;;;;;;6125860;23;20160;-92
2022/07/27 01:04:36;;;;;;;0.77;0.70;;;13.80;99.90;;;;;;6100701;23;20200;-92
2022/07/27 01:07:03;;;;;;;1.60;0.83;;;13.80;99.90;;;;;;6100520;23;20218;-92
2022/07/27 01:12:18;;;;;;;0.50;0.33;;;13.70;99.90;;;;;;6125265;23;20255;-93
2022/07/27 01:14:45;;;;;;;2.00;0.53;;;13.70;99.90;;;;;;6125098;23;20625;-91
2022/07/27 01:17:10;;;;;;;5.27;0.70;;;13.60;99.90;;;;;;6077418;23;20160;-92
2022/07/27 01:19:39;;;;;;;0.73;0.60;;;13.60;99.90;;;;;;6100594;23;20251;-93
2022/07/27 01:22:05;;;;;;;0.30;0.30;;;13.40;99.90;;;;;;6100802;23;20274;-93
2022/07/27 01:24:32;;;;;;;0.87;0.50;;;13.40;99.90;;;;;;6124875;23;20230;-92
2022/07/27 01:27:00;;;;;;;0.37;0.37;;;13.40;99.90;;;;;;6124586;23;20192;-93
2022/07/27 01:29:27;;;;;;;2.27;1.03;;;13.40;99.90;;;;;;6077848;23;20678;-92
2022/07/27 01:31:53;;;;;;;4.17;0.93;;;13.40;99.90;;;;;;6076530;23;20568;-92
2022/07/27 01:34:18;;;;;;;0.80;0.80;;;13.50;99.90;;;;;;6100629;23;20200;-93
2022/07/27 01:36:47;;;;;;;0.63;0.47;;;13.60;99.90;;;;;;6124815;23;20191;-92
2022/07/27 01:39:14;;;;;;;2.97;0.80;;;13.70;99.90;;;;;;6077932;23;20373;-93
2022/07/27 01:41:40;;;;;;;0.47;0.43;;;13.80;99.90;;;;;;6124847;23;20199;-92
2022/07/27 01:44:06;;;;;;;0.80;0.63;;;13.90;99.90;;;;;;6101204;23;20180;-92
2022/07/27 01:46:31;;;;;;;0.43;0.40;;;14.10;99.90;;;;;;6100458;23;20969;-93
2022/07/27 01:48:57;;;;;;;0.80;0.60;;;14.20;99.90;;;;;;6076394;23;20196;-93
2022/07/27 01:51:23;;;;;;;2.97;0.63;;;14.30;99.90;;;;;;6076551;23;20196;-92
2022/07/27 01:53:49;;;;;;;1.73;0.70;;;14.40;99.90;;;;;;6100416;23;20195;-93
2022/07/27 01:56:15;;;;;;;0.70;0.50;;;14.50;99.90;;;;;;6077108;23;20166;-92
2022/07/27 01:58:41;;;;;;;9.30;0.87;;;14.60;99.90;;;;;;6126422;23;20196;-92
2022/07/27 02:01:07;;;;;;;4.23;0.90;;;14.60;99.90;;;;;;6126493;23;20196;-92
2022/07/27 02:03:34;;;;;;;7.40;0.80;;;14.60;99.90;;;;;;6102336;23;20272;-93
2022/07/27 02:06:00;;;;;;;1.70;0.27;;;14.70;99.90;;;;;;6102214;23;20191;-92
2022/07/27 02:08:26;;;;;;;1.00;0.87;;;14.70;99.90;;;;;;6079145;23;20171;-92
2022/07/27 02:13:36;;;;;;;0.50;0.40;;;14.90;99.90;;;;;;6127749;23;20200;-92
2022/07/27 02:16:02;;;;;;;0.77;0.47;;;14.90;99.90;;;;;;6102022;23;20195;-92
2022/07/27 02:18:28;;;;;;;4.13;0.70;;;15.00;99.90;;;;;;6126608;23;20270;-92
2022/07/27 02:20:54;;;;;;;0.70;0.70;;;15.00;99.90;;;;;;6077871;23;20609;-92
2022/07/27 02:23:19;;;;;;;1.10;0.63;;;14.90;99.90;;;;;;6102945;23;20164;-92
2022/07/27 02:25:45;;;;;;;1.83;1.57;;;14.80;99.90;;;;;;6101698;23;20216;-92
2022/07/27 02:28:11;;;;;;;1.93;0.73;;;14.90;99.90;;;;;;6126189;23;20633;-92
2022/07/27 02:30:37;;;;;;;10.07;0.70;;;14.90;99.90;;;;;;6077757;23;20191;-93
2022/07/27 02:33:03;;;;;;;0.50;0.50;;;15.00;99.90;;;;;;6101923;23;20220;-92
2022/07/27 02:35:29;;;;;;;0.60;0.60;;;15.00;99.90;;;;;;6102813;23;20196;-93
2022/07/27 02:37:55;;;;;;;2.53;0.60;;;15.00;99.90;;;;;;6101820;23;20214;-92
2022/07/27 02:40:22;;;;;;;0.70;0.70;;;15.00;99.90;;;;;;6078056;23;20229;-92
2022/07/27 02:42:48;;;;;;;0.77;0.60;;;15.00;99.90;;;;;;6126013;23;20665;-92
2022/07/27 02:45:14;;;;;;;1.27;1.17;;;15.00;99.90;;;;;;6101651;23;20224;-93
2022/07/27 02:47:40;;;;;;;2.57;1.10;;;15.00;99.90;;;;;;6102118;23;20195;-93
2022/07/27 02:50:08;;;;;;;2.53;1.17;;;15.00;99.90;;;;;;6078550;23;20156;-92
2022/07/27 02:52:35;;;;;;;1.00;0.50;;;15.00;99.90;;;;;;6078429;23;20223;-92
2022/07/27 02:55:01;;;;;;;2.13;1.03;;;15.00;99.90;;;;;;6125819;23;20227;-92
2022/07/27 02:57:27;;;;;;;5.10;1.00;;;15.00;99.90;;;;;;6126107;23;20196;-92
2022/07/27 02:59:53;;;;;;;2.47;0.97;;;15.00;99.90;;;;;;6101766;23;20238;-93
2022/07/27 03:02:19;;;;;;;0.40;0.40;;;15.00;99.90;;;;;;6102742;23;20167;-93
2022/07/27 03:04:44;;;;;;;0.40;0.40;;;15.00;99.90;;;;;;6077497;23;20649;-93
2022/07/27 03:07:10;;;;;;;0.90;0.90;;;15.00;99.90;;;;;;6101806;23;20239;-93
2022/07/27 03:09:36;;;;;;;0.70;0.50;;;15.00;99.90;;;;;;6125581;23;20663;-92
2022/07/27 03:12:02;;;;;;;0.50;0.50;;;15.00;99.90;;;;;;6125881;23;20203;-93
2022/07/27 03:14:28;;;;;;;1.97;0.60;;;15.00;99.90;;;;;;6102324;23;20210;-92
2022/07/27 03:16:53;;;;;;;1.00;0.67;;;15.00;99.90;;;;;;6125704;23;20270;-93
2022/07/27 03:19:19;;;;;;;0.73;0.43;;;14.90;99.90;;;;;;6101455;23;20203;-92
2022/07/27 03:21:45;;;;;;;3.00;0.80;;;14.90;99.90;;;;;;6101746;23;20199;-93
2022/07/27 03:24:11;;;;;;;0.77;0.50;;;14.90;99.90;;;;;;6101306;23;20573;-93
2022/07/27 03:26:36;;;;;;;1.00;1.00;;;14.90;99.90;;;;;;6101736;23;20492;-92
2022/07/27 03:29:02;;;;;;;1.57;0.90;;;14.90;99.90;;;;;;6078343;23;20248;-93
2022/07/27 03:31:28;;;;;;;0.60;0.60;;;14.80;99.90;;;;;;6101573;23;20207;-93
2022/07/27 03:33:54;;;;;;;0.67;0.43;;;14.80;99.90;;;;;;6125240;23;20204;-91
2022/07/27 03:36:20;;;;;;;2.43;0.83;;;14.70;99.90;;;;;;6077399;23;20188;-93
2022/07/27 03:38:46;;;;;;;1.73;1.07;;;14.70;99.90;;;;;;6077864;23;20498;-93
2022/07/27 03:41:12;;;;;;;1.00;0.60;;;14.60;99.90;;;;;;6074373;23;20157;-92
2022/07/27 03:43:37;;;;;;;0.70;0.70;;;14.70;99.90;;;;;;6048603;23;20197;-91
2022/07/27 03:46:03;;;;;;;0.70;0.50;;;14.60;99.90;;;;;;6072276;23;20216;-92
2022/07/27 03:48:29;;;;;;;0.50;0.50;;;14.60;99.90;;;;;;6024972;23;20191;-93
2022/07/27 03:50:55;;;;;;;1.80;0.40;;;14.70;99.90;;;;;;6024510;23;20185;-89
2022/07/27 03:53:21;;;;;;;6.27;0.60;;;14.70;99.90;;;;;;6049434;23;20160;-92
2022/07/27 03:55:50;;;;;;;3.33;0.70;;;14.70;99.90;;;;;;6072300;23;20247;-93
2022/07/27 03:58:16;;;;;;;0.40;0.40;;;14.70;99.90;;;;;;6024705;23;20252;-93
2022/07/27 04:00:45;;;;;;;6.27;1.13;;;14.70;99.90;;;;;;6048671;23;20562;-92
2022/07/27 04:03:11;;;;;;;1.63;0.80;;;14.70;99.90;;;;;;6024725;23;20244;-93
2022/07/27 04:05:37;;;;;;;1.87;0.77;;;14.70;99.90;;;;;;6024471;23;20168;-93
2022/07/27 04:08:03;;;;;;;1.27;1.00;;;14.80;99.90;;;;;;6025446;23;20168;-92
2022/07/27 04:10:28;;;;;;;4.77;0.60;;;14.80;99.90;;;;;;6024927;23;20670;-93
2022/07/27 04:12:54;;;;;;;0.67;0.50;;;14.90;99.90;;;;;;6048331;23;20223;-93
2022/07/27 04:15:21;;;;;;;1.60;0.70;;;14.90;99.90;;;;;;6024626;23;20208;-93
2022/07/27 04:17:47;;;;;;;0.97;0.50;;;14.90;99.90;;;;;;6072649;23;20587;-92
2022/07/27 04:20:13;;;;;;;0.43;0.43;;;14.90;99.90;;;;;;6025844;23;20161;-92
2022/07/27 04:22:39;;;;;;;2.17;0.50;;;14.90;99.90;;;;;;6048098;23;20252;-93
2022/07/27 04:25:05;;;;;;;1.07;0.67;;;14.90;99.90;;;;;;6048393;23;20636;-92
2022/07/27 04:27:31;;;;;;;1.23;0.50;;;14.90;99.90;;;;;;6072138;23;20203;-92
2022/07/27 04:29:57;;;;;;;2.17;0.77;;;14.90;99.90;;;;;;6071896;23;20185;-92
2022/07/27 04:32:23;;;;;;;6.20;1.30;;;15.00;99.90;;;;;;6049026;23;20587;-92
2022/07/27 04:34:49;;;;;;;1.37;0.63;;;15.00;99.90;;;;;;6048043;23;20658;-92
2022/07/27 04:37:15;;;;;;;0.40;0.40;;;15.00;99.90;;;;;;6048116;23;20200;-91
2022/07/27 04:39:40;;;;;;;0.40;0.40;;;15.00;99.90;;;;;;6048445;23;20196;-90
2022/07/27 04:42:07;;;;;;;1.37;0.87;;;14.90;99.90;;;;;;6048508;23;20208;-92
2022/07/27 04:44:33;;;;;;;4.37;0.83;;;14.90;99.90;;;;;;6077357;23;20171;-91
2022/07/27 04:46:59;;;;;;;2.10;0.50;;;14.80;99.90;;;;;;6101371;23;20156;-90
2022/07/27 04:49:25;;;;;;;0.53;0.53;;;14.80;99.90;;;;;;6125113;23;20282;-91
2022/07/27 04:51:51;;;;;;;0.53;0.50;;;14.80;99.90;;;;;;6124219;23;20195;-90
2022/07/27 04:54:16;;;;;;;1.47;0.63;;;14.80;99.90;;;;;;6098676;23;20200;-90
2022/07/27 04:56:42;;;;;;;0.73;0.40;;;14.70;99.90;;;;;;6077041;23;20157;-90
2022/07/27 04:59:08;;;;;;;0.40;0.40;;;14.70;99.90;;;;;;6101429;23;20214;-90
2022/07/27 05:01:33;;;;;;;0.53;0.30;;;14.60;99.90;;;;;;6100538;23;20668;-90
2022/07/27 05:03:59;;;;;;;0.50;0.50;;;14.70;99.90;;;;;;6076652;23;20207;-88
2022/07/27 05:06:25;;;;;;;0.67;0.50;;;14.70;99.90;;;;;;6100601;23;20191;-90
2022/07/27 05:08:51;;;;;;;0.50;0.47;;;14.80;99.90;;;;;;6076903;23;20274;-91
2022/07/27 05:11:16;;;;;;;7.20;0.73;;;14.90;99.90;;;;;;6101131;23;20163;-90
2022/07/27 05:13:42;;;;;;;1.87;0.50;;;14.90;99.90;;;;;;6100235;23;20199;-91
2022/07/27 05:16:11;;;;;;;1.07;0.83;;;14.90;99.90;;;;;;6100577;23;20504;-90
2022/07/27 05:18:38;;;;;;;1.13;0.53;;;15.00;99.90;;;;;;6100850;23;20211;-90
2022/07/27 05:21:05;;;;;;;0.43;0.43;;;15.10;99.90;;;;;;6124903;23;20187;-90
2022/07/27 05:23:30;;;;;;;1.70;0.43;;;15.30;99.90;;;;;;6125133;23;20157;-89
2022/07/27 05:25:56;;;;;;;4.87;0.87;;;15.50;99.90;;;;;;6077563;23;20244;-90
2022/07/27 05:28:22;;;;;;;1.53;0.60;;;16.80;99.90;;;;;;6124611;23;20203;-90
2022/07/27 05:30:47;;;;;;;2.53;0.83;;;18.30;99.90;;;;;;6124727;23;20199;-90
2022/07/27 05:33:13;;;;;;;1.90;1.03;;;19.20;99.90;;;;;;6127677;23;20223;-91
2022/07/27 05:35:39;;;;;;;0.50;0.50;;;19.80;99.90;;;;;;6078600;23;20188;-90
2022/07/27 05:38:05;;;;;;;1.80;0.60;;;20.40;99.90;;;;;;6079220;23;20152;-90
2022/07/27 05:40:30;;;;;;;0.50;0.50;;;20.50;99.90;;;;;;6126634;23;20382;-93
2022/07/27 05:42:56;;;;;;;2.07;0.60;;;20.70;99.90;;;;;;6078756;23;20266;-94
2022/07/27 05:45:22;;;;;;;1.37;0.67;;;21.20;99.90;;;;;;6079092;23;20195;-95
2022/07/27 05:47:48;;;;;;;0.77;0.67;;;21.30;99.90;;;;;;6128220;23;20184;-94
2022/07/27 05:50:15;;;;;;;3.30;1.00;;;21.80;99.90;;;;;;6078825;23;20215;-93
2022/07/27 05:52:42;;;;;;;1.43;0.80;;;21.60;99.90;;;;;;6103509;23;20191;-96
2022/07/27 05:55:08;;;;;;;1.27;1.13;;;22.10;99.90;;;;;;6128303;23;20247;-96
2022/07/27 05:57:34;;;;;;;1.17;0.90;;;22.00;99.90;;;;;;6126886;23;20192;-93
2022/07/27 06:00:00;;;;;;;0.90;0.80;;;21.30;99.90;;;;;;6127157;23;20191;-95
2022/07/27 06:02:29;;;;;;;1.15;0.73;;;21.90;99.90;;;;;;6103158;23;20183;-94
2022/07/27 06:04:54;;;;;;;2.35;0.80;;;22.20;99.90;;;;;;6103537;23;20648;-95
2022/07/27 06:10:05;;;;;;;1.77;0.80;;;23.20;99.90;;;;;;6126548;23;20661;-94
2022/07/27 06:12:39;;;;;;;1.13;1.00;;;22.10;99.90;;;;;;6078277;23;20200;-95
2022/07/27 06:15:06;;;;;;;1.52;0.50;;;21.70;99.90;;;;;;6126368;23;20731;-93
2022/07/27 06:17:32;;;;;;;1.13;0.50;;;23.10;99.90;;;;;;6102713;23;20590;-92
2022/07/27 06:19:58;;;;;;;0.60;0.50;;;22.60;99.90;;;;;;6127286;23;20167;-93
2022/07/27 06:22:23;;;;;;;1.65;0.60;;;22.80;99.90;;;;;;6101982;23;20211;-93
2022/07/27 06:24:49;;;;;;;3.55;1.10;;;22.60;99.90;;;;;;6103304;23;20207;-96
2022/07/27 06:27:15;;;;;;;1.95;0.95;;;24.60;99.90;;;;;;6078251;23;20188;-92
2022/07/27 06:29:41;;;;;;;1.50;0.70;;;25.00;99.90;;;;;;6078449;23;20168;-92
2022/07/27 06:32:07;;;;;;;1.20;0.60;;;23.90;99.90;;;;;;6127196;23;20590;-93
2022/07/27 06:34:33;;;;;;;1.50;1.10;;;24.00;99.90;;;;;;6078016;23;20255;-92
2022/07/27 06:36:59;;;;;;;1.75;0.90;;;23.30;99.90;;;;;;6078179;23;20196;-92
2022/07/27 06:39:25;;;;;;;1.88;0.88;;;22.10;99.90;;;;;;6102028;23;20188;-94
2022/07/27 06:41:51;;;;;;;4.55;1.25;;;21.30;99.90;;;;;;6102220;23;20302;-90
2022/07/27 06:44:17;;;;;;;1.38;1.00;;;21.20;99.90;;;;;;6102015;23;20644;-91
2022/07/27 06:46:42;;;;;;;2.30;0.75;;;20.40;99.90;;;;;;6077580;23;20226;-89
2022/07/27 06:49:08;;;;;;;1.05;0.70;;;19.70;99.90;;;;;;6077514;23;20716;-89
2022/07/27 06:51:34;;;;;;;1.85;0.60;;;19.80;99.90;;;;;;6101442;23;20254;-88
2022/07/27 06:54:00;;;;;;;2.65;1.00;;;20.00;99.90;;;;;;6077161;23;20287;-88
2022/07/27 06:56:25;;;;;;;1.83;0.80;;;20.40;99.90;;;;;;6102359;23;20238;-92
2022/07/27 06:58:51;;;;;;;0.65;0.60;;;20.40;99.90;;;;;;6077660;23;20206;-89
2022/07/27 07:01:17;;;;;;;2.67;0.70;;;20.20;99.90;;;;;;6101252;23;20195;-88
2022/07/27 07:03:43;;;;;;;1.27;0.70;;;19.40;99.90;;;;;;6125602;23;20196;-89
2022/07/27 07:06:09;;;;;;;1.33;0.67;;;18.80;99.90;;;;;;6101337;23;20243;-88
2022/07/27 07:08:34;;;;;;;0.50;0.50;;;18.20;99.90;;;;;;6126136;23;20598;-90
2022/07/27 07:11:01;;;;;;;2.20;0.50;;;17.20;99.90;;;;;;6101677;23;20157;-91
2022/07/27 07:13:27;;;;;;;2.43;0.90;;;16.50;99.90;;;;;;6101354;23;20210;-90
2022/07/27 07:15:53;;;;;;;2.13;0.80;;;16.50;99.90;;;;;;6101292;23;20232;-89
2022/07/27 07:18:18;;;;;;;1.80;0.80;;;16.50;99.90;;;;;;6077651;23;20247;-89
2022/07/27 07:20:44;;;;;;;1.20;1.07;;;16.60;99.90;;;;;;6077319;23;20167;-89
2022/07/27 07:23:10;;;;;;;3.37;0.77;;;16.70;99.90;;;;;;6101953;23;20164;-89
2022/07/27 07:25:37;;;;;;;2.00;0.80;;;16.80;99.90;;;;;;6077726;23;20210;-89
2022/07/27 07:28:04;;;;;;;0.93;0.80;;;16.80;99.90;;;;;;6101720;23;20278;-89
2022/07/27 07:30:30;;;;;;;0.80;0.67;;;17.00;99.90;;;;;;6101128;23;20243;-89
2022/07/27 07:32:56;;;;;;;0.97;0.60;;;17.20;99.90;;;;;;6077631;23;20227;-90
2022/07/27 07:35:22;;;;;;;2.67;0.60;;;17.60;99.90;;;;;;6101292;23;20239;-90
2022/07/27 07:37:48;;;;;;;1.60;0.80;;;18.00;99.90;;;;;;6101467;23;20207;-90
2022/07/27 07:40:14;;;;;;;2.87;1.00;;;18.60;99.90;;;;;;6076960;23;20226;-90
2022/07/27 07:42:51;;;;;;;1.50;0.77;;;18.90;99.90;;;;;;6101234;23;20246;-90
2022/07/27 07:45:18;;;;;;;1.93;1.13;;;20.90;99.90;;;;;;6125313;23;20195;-89
2022/07/27 07:47:44;;;;;;;2.90;0.70;;;21.70;99.90;;;;;;6101517;23;20157;-91
2022/07/27 07:50:09;;;;;;;0.60;0.60;;;22.00;99.90;;;;;;6078197;23;20160;-91
2022/07/27 07:52:36;;;;;;;1.47;1.00;;;23.40;99.90;;;;;;6101213;23;20660;-90
2022/07/27 07:55:02;;;;;;;2.40;1.00;;;23.80;99.90;;;;;;6077241;23;20282;-90
2022/07/27 07:57:27;;;;;;;0.60;0.60;;;24.40;99.90;;;;;;6100831;23;20199;-91
2022/07/27 07:59:53;;;;;;;1.48;0.68;;;23.80;99.90;;;;;;6101263;23;20200;-90
2022/07/27 08:02:20;;;;;;;0.63;0.63;;;23.80;99.90;;;;;;6101203;23;20617;-90
2022/07/27 08:04:46;;;;;;;1.33;0.88;;;22.10;99.90;;;;;;6077447;23;20301;-92
2022/07/27 08:07:12;;;;;;;2.05;1.05;;;20.60;99.90;;;;;;6100493;23;20664;-90
2022/07/27 08:09:38;;;;;;;0.40;0.40;;;19.70;99.90;;;;;;6076790;23;20248;-88
2022/07/27 08:12:05;;;;;;;1.95;0.75;;;19.30;99.90;;;;;;6101133;23;20278;-90
2022/07/27 08:14:31;;;;;;;3.33;0.87;;;19.90;99.90;;;;;;6101304;23;20642;-89
2022/07/27 08:16:57;;;;;;;0.90;0.60;;;20.10;99.90;;;;;;6101533;23;20160;-89
2022/07/27 08:19:23;;;;;;;0.67;0.67;;;20.30;99.90;;;;;;6125132;23;20283;-88
2022/07/27 08:21:49;;;;;;;2.13;0.80;;;20.20;99.90;;;;;;6124776;23;20783;-90
2022/07/27 08:24:15;;;;;;;1.17;0.60;;;20.50;99.90;;;;;;6076639;23;20206;-87
2022/07/27 08:26:41;;;;;;;1.10;1.00;;;20.60;99.90;;;;;;6125224;23;20164;-89
2022/07/27 08:29:07;;;;;;;1.65;0.63;;;21.50;99.90;;;;;;6101287;23;20168;-89
2022/07/27 08:31:32;;;;;;;0.80;0.80;;;21.20;99.90;;;;;;6100191;23;20279;-89
2022/07/27 08:33:58;;;;;;;0.90;0.77;;;21.30;99.90;;;;;;6076319;23;20219;-89
2022/07/27 08:36:24;;;;;;;3.20;0.80;;;21.80;99.90;;;;;;6076346;23;20239;-87
2022/07/27 08:38:50;;;;;;;0.80;0.57;;;21.80;99.90;;;;;;6100758;23;20188;-91
2022/07/27 08:41:18;;;;;;;1.08;0.70;;;21.50;99.90;;;;;;6073145;23;20196;-89
2022/07/27 08:43:46;;;;;;;2.67;1.00;;;20.90;99.90;;;;;;6072596;23;20208;-90
2022/07/27 08:46:15;;;;;;;1.40;0.40;;;21.30;99.90;;;;;;6048640;23;20222;-90
2022/07/27 08:48:41;;;;;;;0.50;0.50;;;21.70;99.90;;;;;;6048514;23;20189;-91
2022/07/27 08:51:06;;;;;;;0.95;0.63;;;22.10;99.90;;;;;;6048349;23;20216;-92
2022/07/27 08:53:33;;;;;;;1.23;1.10;;;21.20;99.90;;;;;;6024574;23;20183;-91
2022/07/27 08:55:59;;;;;;;2.03;0.70;;;22.30;99.90;;;;;;6049081;23;20224;-92
2022/07/27 08:58:26;;;;;;;0.90;0.85;;;23.40;99.90;;;;;;6071464;23;20193;-90
2022/07/27 09:00:52;;;;;;;1.88;0.70;;;22.60;99.90;;;;;;6048230;23;20642;-92
2022/07/27 09:03:20;;;;;;;1.95;0.90;;;20.90;99.90;;;;;;6047723;23;20642;-90
2022/07/27 09:05:52;;;;;;;3.85;0.60;;;19.90;99.90;;;;;;6072150;23;20208;-91
2022/07/27 09:08:21;;;;;;;2.00;0.60;;;20.30;99.90;;;;;;6074529;23;20240;-89
2022/07/27 09:10:46;;;;;;;0.75;0.70;;;21.80;99.90;;;;;;6073746;23;20658;-91
2022/07/27 09:13:30;;;;;;;1.65;0.90;;;21.60;99.90;;;;;;6050380;23;20208;-92
2022/07/27 09:16:16;;;;;;;4.45;0.80;;;20.20;99.90;;;;;;6073602;23;20208;-90
2022/07/27 09:18:42;;;;;;;1.87;0.70;;;20.20;99.90;;;;;;6073627;23;20227;-91
2022/07/27 09:21:10;;;;;;;3.60;0.90;;;19.90;99.90;;;;;;6026431;23;20197;-90
2022/07/27 09:23:38;;;;;;;1.40;0.60;;;19.20;99.90;;;;;;6073396;23;20164;-92
2022/07/27 09:26:12;;;;;;;2.43;0.73;;;18.90;99.90;;;;;;6074496;23;20563;-91
2022/07/27 09:28:39;;;;;;;1.53;0.60;;;18.80;99.90;;;;;;6073430;23;20251;-91
2022/07/27 09:31:07;;;;;;;4.73;0.97;;;19.00;99.90;;;;;;6073470;23;20224;-90
2022/07/27 09:33:49;;;;;;;3.53;1.00;;;19.00;99.90;;;;;;6073540;23;20199;-89
2022/07/27 09:36:17;;;;;;;4.20;0.97;;;20.60;99.90;;;;;;6073449;23;20259;-90
2022/07/27 09:38:55;;;;;;;1.63;0.73;;;22.20;99.90;;;;;;6050085;23;20489;-89
2022/07/27 09:41:22;;;;;;;0.70;0.70;;;23.40;99.90;;;;;;6076930;23;20617;-90
2022/07/27 09:43:51;;;;;;;1.08;0.90;;;23.50;99.90;;;;;;6073528;23;20208;-90
2022/07/27 09:46:28;;;;;;;2.75;0.75;;;22.50;99.90;;;;;;6073768;23;20197;-91
2022/07/27 09:48:54;;;;;;;1.55;0.80;;;23.20;99.90;;;;;;6074008;23;20192;-92
2022/07/27 09:51:23;;;;;;;1.60;0.70;;;24.90;99.90;;;;;;6049284;23;20839;-89
2022/07/27 09:53:50;;;;;;;4.50;1.10;;;26.10;99.90;;;;;;6074150;23;20192;-91
2022/07/27 09:56:16;;;;;;;0.63;0.63;;;25.70;99.90;;;;;;6074451;23;20157;-93
2022/07/27 09:58:48;;;;;;;0.65;0.60;;;24.80;99.90;;;;;;6049737;23;20192;-91
2022/07/27 10:01:20;;;;;;;0.47;0.47;;;22.70;99.90;;;;;;6098185;23;20208;-90
2022/07/27 10:03:49;;;;;;;1.83;0.60;;;22.70;99.90;;;;;;6073220;23;20204;-92
2022/07/27 10:06:16;;;;;;;1.90;0.65;;;22.40;99.90;;;;;;6074120;23;20220;-94
2022/07/27 10:08:46;;;;;;;3.10;0.60;;;22.50;99.90;;;;;;6073509;23;20172;-93
2022/07/27 10:11:14;;;;;;;1.90;0.68;;;22.80;99.90;;;;;;6051195;23;20557;-94
2022/07/27 10:13:41;;;;;;;1.15;0.77;;;22.00;99.90;;;;;;6073687;23;20283;-95
2022/07/27 10:16:12;;;;;;;0.60;0.52;;;22.30;99.90;;;;;;6073420;23;20287;-93
2022/07/27 10:19:10;;;;;;;0.93;0.68;;;22.40;99.90;;;;;;6073531;23;20200;-94
2022/07/27 10:21:37;;;;;;;2.88;0.77;;;23.00;99.90;;;;;;6073357;23;20196;-91
2022/07/27 10:24:05;;;;;;;2.63;1.20;;;23.30;99.90;;;;;;6049527;23;20201;-92
2022/07/27 10:26:34;;;;;;;2.30;0.77;;;23.10;99.90;;;;;;6073850;23;20160;-88
2022/07/27 10:29:07;;;;;;;2.38;0.70;;;22.90;99.90;;;;;;6073988;23;20153;-93
2022/07/27 10:31:36;;;;;;;0.60;0.60;;;22.50;99.90;;;;;;6073232;23;20208;-90
2022/07/27 10:34:04;;;;;;;2.05;0.77;;;21.80;99.90;;;;;;6073247;23;20589;-92
2022/07/27 10:36:29;;;;;;;1.13;0.57;;;20.70;99.90;;;;;;6073417;23;20193;-91
2022/07/27 10:38:57;;;;;;;1.98;0.60;;;21.60;99.90;;;;;;6074346;23;20223;-90
2022/07/27 10:41:27;;;;;;;0.55;0.50;;;22.30;99.90;;;;;;6050892;23;20157;-94
2022/07/27 10:44:21;;;;;;;1.45;0.75;;;23.40;99.90;;;;;;6073242;23;20204;-93
2022/07/27 10:46:55;;;;;;;1.38;0.82;;;22.70;99.90;;;;;;6073846;23;20208;-92
2022/07/27 10:49:33;;;;;;;0.65;0.47;;;22.90;99.90;;;;;;6098740;23;20196;-92
2022/07/27 10:52:01;;;;;;;1.17;0.80;;;22.80;99.90;;;;;;6074122;23;20196;-93
2022/07/27 10:54:35;;;;;;;1.15;0.60;;;23.00;99.90;;;;;;6050234;23;20228;-95
2022/07/27 10:57:04;;;;;;;2.20;0.80;;;22.30;99.90;;;;;;6074239;23;20193;-93
2022/07/27 10:59:39;;;;;;;0.98;0.60;;;22.40;99.90;;;;;;6074035;23;20153;-96
2022/07/27 11:02:10;;;;;;;0.55;0.52;;;22.90;99.90;;;;;;6073826;23;20184;-93
2022/07/27 11:04:46;;;;;;;0.95;0.40;;;22.30;99.90;;;;;;6050054;23;20200;-96
2022/07/27 11:07:21;;;;;;;1.60;0.60;;;22.30;99.90;;;;;;6073552;23;20204;-94
2022/07/27 11:09:50;;;;;;;0.85;0.50;;;21.40;99.90;;;;;;6098953;23;20196;-93
2022/07/27 11:12:17;;;;;;;1.65;0.70;;;21.70;99.90;;;;;;6073434;23;20216;-93
2022/07/27 11:14:47;;;;;;;0.60;0.50;;;19.80;99.90;;;;;;6097501;23;20201;-92
2022/07/27 11:17:18;;;;;;;0.60;0.60;;;19.00;99.90;;;;;;6073404;23;20494;-90
2022/07/27 11:19:50;;;;;;;1.73;0.60;;;18.40;99.90;;;;;;6097424;23;20275;-91
2022/07/27 11:22:15;;;;;;;1.77;0.70;;;17.90;99.90;;;;;;6072406;23;20202;-90
2022/07/27 11:24:41;;;;;;;0.50;0.50;;;17.80;99.90;;;;;;6048847;23;20205;-92
2022/07/27 11:27:10;;;;;;;2.57;0.70;;;17.70;99.90;;;;;;6048739;23;20275;-91
2022/07/27 11:29:35;;;;;;;0.50;0.50;;;17.80;99.90;;;;;;6072198;23;20156;-90
2022/07/27 11:32:03;;;;;;;1.03;0.63;;;18.00;99.90;;;;;;6025468;23;20164;-90
2022/07/27 11:34:33;;;;;;;1.13;0.50;;;18.30;99.90;;;;;;6072214;23;20204;-90
2022/07/27 11:37:01;;;;;;;1.50;0.50;;;18.70;99.90;;;;;;6072169;23;20196;-90
2022/07/27 11:39:29;;;;;;;0.40;0.40;;;18.90;99.90;;;;;;6048552;23;20192;-91
2022/07/27 11:41:57;;;;;;;2.83;0.63;;;19.30;99.90;;;;;;6086005;23;20204;-89
2022/07/27 11:44:23;;;;;;;0.40;0.40;;;19.60;99.90;;;;;;6126296;23;20164;-90
2022/07/27 11:46:51;;;;;;;3.03;0.60;;;20.20;99.90;;;;;;6101136;23;20252;-91
2022/07/27 11:49:27;;;;;;;1.77;0.60;;;20.20;99.90;;;;;;6125703;23;20528;-91
2022/07/27 11:51:57;;;;;;;0.40;0.40;;;20.60;99.90;;;;;;6125551;23;20199;-89
2022/07/27 11:54:28;;;;;;;2.83;0.53;;;21.00;99.90;;;;;;6125661;23;20204;-90
2022/07/27 11:56:55;;;;;;;2.30;0.70;;;20.60;99.90;;;;;;6125508;23;20602;-90
2022/07/27 11:59:25;;;;;;;2.17;0.70;;;20.40;99.90;;;;;;6126486;23;20652;-91
2022/07/27 12:01:52;;;;;;;0.57;0.57;;;20.60;99.90;;;;;;6125320;23;20203;-92
2022/07/27 12:04:20;;;;;;;4.90;0.73;;;20.40;99.90;;;;;;6125394;23;20207;-92
2022/07/27 12:07:06;;;;;;;0.50;0.47;;;20.50;99.90;;;;;;6126724;23;20533;-90
2022/07/27 12:09:35;;;;;;;1.50;0.67;;;20.90;99.90;;;;;;6125237;23;20530;-90
2022/07/27 12:12:14;;;;;;;1.50;0.50;;;20.50;99.90;;;;;;6125195;23;20207;-90
2022/07/27 12:14:41;;;;;;;2.03;0.60;;;20.30;99.90;;;;;;6125480;23;20176;-92
2022/07/27 12:17:33;;;;;;;2.43;0.80;;;20.80;99.90;;;;;;6125964;23;20156;-92
2022/07/27 12:20:09;;;;;;;1.27;0.50;;;20.90;99.90;;;;;;6126369;23;20594;-92
2022/07/27 12:22:39;;;;;;;0.70;0.70;;;21.00;99.90;;;;;;6125563;23;20595;-91
2022/07/27 12:25:17;;;;;;;0.60;0.60;;;21.00;99.90;;;;;;6125416;23;20235;-91
2022/07/27 12:28:11;;;;;;;1.20;0.80;;;20.80;99.90;;;;;;6125036;23;20200;-91
2022/07/27 12:30:39;;;;;;;1.00;0.73;;;20.70;99.90;;;;;;6125753;23;20192;-93
2022/07/27 12:33:25;;;;;;;2.07;0.53;;;21.00;99.90;;;;;;6125825;23;20204;-93
2022/07/27 12:35:52;;;;;;;1.90;0.60;;;21.30;99.90;;;;;;6126062;23;20740;-93
2022/07/27 12:38:17;;;;;;;2.33;0.53;;;21.30;99.90;;;;;;6102262;23;20188;-93
2022/07/27 12:40:50;;;;;;;1.97;0.87;;;21.10;99.90;;;;;;6126326;23;20644;-94
2022/07/27 12:43:22;;;;;;;6.27;1.47;;;21.00;99.90;;;;;;6104207;23;20280;-93
2022/07/27 12:45:49;;;;;;;1.00;0.60;;;20.60;99.90;;;;;;6051289;23;20513;-93
2022/07/27 12:48:23;;;;;;;3.53;0.80;;;20.40;99.90;;;;;;6051076;23;20219;-95
2022/07/27 12:51:01;;;;;;;2.50;0.60;;;20.30;99.90;;;;;;6099559;23;20144;-94
2022/07/27 12:53:28;;;;;;;0.70;0.70;;;20.40;99.90;;;;;;6075220;23;20679;-93
2022/07/27 12:55:56;;;;;;;1.83;0.50;;;20.40;99.90;;;;;;6025607;23;20534;-93
2022/07/27 12:58:22;;;;;;;1.40;0.60;;;20.70;99.90;;;;;;6097378;23;20196;-91